createdAt,value
2023-04-28T00:01:27.453Z,4.33
2023-04-28T00:03:55.363Z,4.43
2023-04-28T00:06:22.149Z,4.17
2023-04-28T00:08:48.951Z,4.00
2023-04-28T00:11:15.795Z,4.40
2023-04-28T00:13:42.485Z,3.70
2023-04-28T00:16:09.116Z,4.10
2023-04-28T00:18:35.900Z,4.10
2023-04-28T00:21:02.658Z,4.10
2023-04-28T00:23:29.344Z,4.30
2023-04-28T00:25:57.302Z,4.10
2023-04-28T00:28:33.495Z,3.87
2023-04-28T00:31:01.967Z,4.10
2023-04-28T00:33:28.783Z,4.17
2023-04-28T00:35:59.083Z,4.20
2023-04-28T00:38:25.860Z,4.30
2023-04-28T00:40:52.547Z,4.50
2023-04-28T00:43:19.269Z,4.10
2023-04-28T00:45:45.992Z,4.47
2023-04-28T00:48:13.693Z,3.77
2023-04-28T00:50:40.472Z,4.37
2023-04-28T00:53:07.547Z,4.67
2023-04-28T00:55:34.997Z,4.30
2023-04-28T00:58:02.161Z,4.80
2023-04-28T01:00:29.378Z,4.27
2023-04-28T01:02:57.179Z,4.50
2023-04-28T01:05:28.708Z,4.20
2023-04-28T01:07:56.469Z,4.13
2023-04-28T01:10:23.207Z,4.27
2023-04-28T01:12:49.961Z,4.50
2023-04-28T01:15:17.456Z,4.23
2023-04-28T01:17:46.887Z,4.70
2023-04-28T01:20:16.882Z,4.40
2023-04-28T01:22:43.649Z,3.77
2023-04-28T01:25:10.366Z,4.27
2023-04-28T01:27:37.673Z,4.20
2023-04-28T01:30:04.639Z,4.30
2023-04-28T01:32:31.439Z,4.70
2023-04-28T01:34:58.155Z,4.27
2023-04-28T01:37:25.365Z,4.10
2023-04-28T01:39:54.048Z,4.20
2023-04-28T01:42:20.830Z,4.40
2023-04-28T01:44:47.611Z,4.67
2023-04-28T01:47:14.283Z,4.37
2023-04-28T01:49:40.974Z,4.50
2023-04-28T01:52:08.085Z,4.90
2023-04-28T01:54:35.223Z,4.53
2023-04-28T01:57:03.109Z,4.90
2023-04-28T01:59:31.167Z,4.27
2023-04-28T02:01:57.974Z,4.47
2023-04-28T02:04:24.959Z,4.43
2023-04-28T02:06:51.748Z,4.03
2023-04-28T02:09:18.412Z,4.53
2023-04-28T02:11:45.253Z,4.90
2023-04-28T02:14:11.938Z,4.70
2023-04-28T02:16:38.628Z,3.97
2023-04-28T02:19:05.313Z,4.40
2023-04-28T02:21:32.808Z,4.50
2023-04-28T02:23:59.602Z,3.97
2023-04-28T02:26:26.336Z,4.57
2023-04-28T02:28:52.984Z,4.47
2023-04-28T02:31:19.895Z,4.80
2023-04-28T02:33:46.622Z,4.80
2023-04-28T02:36:13.394Z,4.70
2023-04-28T02:38:41.623Z,5.03
2023-04-28T02:41:09.276Z,4.33
2023-04-28T02:43:37.193Z,4.70
2023-04-28T02:46:04.710Z,4.23
2023-04-28T02:48:31.565Z,4.50
2023-04-28T02:50:58.239Z,4.27
2023-04-28T02:53:24.899Z,4.83
2023-04-28T02:55:51.632Z,5.13
2023-04-28T02:58:18.710Z,4.83
2023-04-28T03:00:46.613Z,4.63
2023-04-28T03:03:13.965Z,4.37
2023-04-28T03:05:41.070Z,4.63
2023-04-28T03:08:07.954Z,4.57
2023-04-28T03:10:34.669Z,4.80
2023-04-28T03:13:02.211Z,4.37
2023-04-28T03:15:29.952Z,4.87
2023-04-28T03:17:57.790Z,4.93
2023-04-28T03:20:24.579Z,5.10
2023-04-28T03:22:51.225Z,5.03
2023-04-28T03:25:18.488Z,4.57
2023-04-28T03:27:50.977Z,5.03
2023-04-28T03:30:17.687Z,4.77
2023-04-28T03:32:44.450Z,4.83
2023-04-28T03:35:11.345Z,4.60
2023-04-28T03:37:39.613Z,4.50
2023-04-28T03:40:06.732Z,4.50
2023-04-28T03:42:48.929Z,4.60
2023-04-28T03:45:23.241Z,4.50
2023-04-28T03:47:49.993Z,5.27
2023-04-28T03:50:16.786Z,4.70
2023-04-28T03:52:43.491Z,4.87
2023-04-28T03:55:10.284Z,4.40
2023-04-28T03:57:37.007Z,4.30
2023-04-28T04:00:04.183Z,4.60
2023-04-28T04:02:31.541Z,4.60
2023-04-28T04:04:58.436Z,5.23
2023-04-28T04:07:25.349Z,4.40
2023-04-28T04:09:51.993Z,4.37
2023-04-28T04:12:18.756Z,4.40
2023-04-28T04:14:46.149Z,4.83
2023-04-28T04:17:12.977Z,4.40
2023-04-28T04:19:39.701Z,4.60
2023-04-28T04:22:06.422Z,4.47
2023-04-28T04:24:33.154Z,4.60
2023-04-28T04:26:59.781Z,4.97
2023-04-28T04:29:35.026Z,4.43
2023-04-28T04:32:06.958Z,4.87
2023-04-28T04:34:33.865Z,4.50
2023-04-28T04:37:01.305Z,4.57
2023-04-28T04:39:28.283Z,4.70
2023-04-28T04:41:54.977Z,5.03
2023-04-28T04:44:43.697Z,5.00
2023-04-28T04:47:18.983Z,4.70
2023-04-28T04:49:46.649Z,4.17
2023-04-28T04:52:13.347Z,4.53
2023-04-28T04:54:40.024Z,4.70
2023-04-28T04:57:07.079Z,4.73
2023-04-28T04:59:56.574Z,4.30
2023-04-28T05:02:23.378Z,4.50
2023-04-28T05:04:50.712Z,4.57
2023-04-28T05:07:17.701Z,4.93
2023-04-28T05:09:44.510Z,4.80
2023-04-28T05:12:11.683Z,4.80
2023-04-28T05:14:38.367Z,4.63
2023-04-28T05:17:05.165Z,4.80
2023-04-28T05:19:36.609Z,4.67
2023-04-28T05:22:03.789Z,4.70
2023-04-28T05:24:31.778Z,4.93
2023-04-28T05:26:59.325Z,4.53
2023-04-28T05:29:26.044Z,4.73
2023-04-28T05:31:53.842Z,4.10
2023-04-28T05:34:22.668Z,4.87
2023-04-28T05:36:49.711Z,4.70
2023-04-28T05:39:17.810Z,4.87
2023-04-28T05:41:44.449Z,5.03
2023-04-28T05:44:11.736Z,4.67
2023-04-28T05:46:39.885Z,4.50
2023-04-28T05:49:06.649Z,4.57
2023-04-28T05:51:37.143Z,5.73
2023-04-28T05:54:03.866Z,4.47
2023-04-28T05:56:33.362Z,4.83
2023-04-28T05:59:04.187Z,4.90
2023-04-28T06:01:31.991Z,5.13
2023-04-28T06:03:59.149Z,4.53
2023-04-28T06:06:27.607Z,4.50
2023-04-28T06:08:54.376Z,4.97
2023-04-28T06:11:22.517Z,5.07
2023-04-28T06:13:50.778Z,4.87
2023-04-28T06:16:18.885Z,5.30
2023-04-28T06:18:46.854Z,5.77
2023-04-28T06:21:16.148Z,5.00
2023-04-28T06:23:42.988Z,5.27
2023-04-28T06:26:10.396Z,4.70
2023-04-28T06:28:39.331Z,5.07
2023-04-28T06:31:07.897Z,4.77
2023-04-28T06:33:34.636Z,4.80
2023-04-28T06:36:01.768Z,4.87
2023-04-28T06:38:28.704Z,5.33
2023-04-28T06:40:55.389Z,4.93
2023-04-28T06:43:22.140Z,7.63
2023-04-28T06:46:11.425Z,5.20
2023-04-28T06:48:38.354Z,4.43
2023-04-28T06:51:05.022Z,5.20
2023-04-28T06:53:34.024Z,5.33
2023-04-28T06:56:00.782Z,4.70
2023-04-28T06:58:27.926Z,5.20
2023-04-28T07:00:54.599Z,5.07
2023-04-28T07:03:21.310Z,5.27
2023-04-28T07:05:48.338Z,5.37
2023-04-28T07:08:15.353Z,4.87
2023-04-28T07:10:42.112Z,5.23
2023-04-28T07:13:09.235Z,5.70
2023-04-28T07:15:36.029Z,5.37
2023-04-28T07:18:02.993Z,5.60
2023-04-28T07:20:29.663Z,5.47
2023-04-28T07:22:56.610Z,5.77
2023-04-28T07:25:23.528Z,5.30
2023-04-28T07:27:50.326Z,5.00
2023-04-28T07:30:27.384Z,5.57
2023-04-28T07:32:55.031Z,5.80
2023-04-28T07:35:22.054Z,5.93
2023-04-28T07:37:48.859Z,5.47
2023-04-28T07:40:15.664Z,5.53
2023-04-28T07:42:42.457Z,5.93
2023-04-28T07:45:09.369Z,6.00
2023-04-28T07:47:36.462Z,5.70
2023-04-28T07:50:05.090Z,6.27
2023-04-28T07:52:32.317Z,6.47
2023-04-28T07:54:59.342Z,6.53
2023-04-28T07:57:26.395Z,6.90
2023-04-28T07:59:53.085Z,6.23
2023-04-28T08:02:20.492Z,6.23
2023-04-28T08:04:47.558Z,6.27
2023-04-28T08:07:14.445Z,6.03
2023-04-28T08:09:43.912Z,6.40
2023-04-28T08:12:10.577Z,6.67
2023-04-28T08:14:37.281Z,5.97
2023-04-28T08:17:04.029Z,6.07
2023-04-28T08:19:30.806Z,6.77
2023-04-28T08:21:57.472Z,7.43
2023-04-28T08:24:24.157Z,6.47
2023-04-28T08:26:50.915Z,7.20
2023-04-28T08:29:17.700Z,7.70
2023-04-28T08:31:44.570Z,7.50
2023-04-28T08:34:11.337Z,6.90
2023-04-28T08:36:37.995Z,7.43
2023-04-28T08:39:08.312Z,7.37
2023-04-28T08:41:37.880Z,6.93
2023-04-28T08:44:08.148Z,7.67
2023-04-28T08:46:35.043Z,6.83
2023-04-28T08:49:02.269Z,7.17
2023-04-28T08:51:40.163Z,7.27
2023-04-28T08:56:38.898Z,7.20
2023-04-28T08:59:05.626Z,7.20
2023-04-28T09:01:32.748Z,7.77
2023-04-28T09:04:03.606Z,7.43
2023-04-28T09:06:38.388Z,6.57
2023-04-28T09:09:24.941Z,6.97
2023-04-28T09:11:59.476Z,6.43
2023-04-28T09:14:27.004Z,6.97
2023-04-28T09:16:53.947Z,7.47
2023-04-28T09:19:20.776Z,7.40
2023-04-28T09:21:49.460Z,7.53
2023-04-28T09:24:46.951Z,7.00
2023-04-28T09:27:15.339Z,7.40
2023-04-28T09:29:52.424Z,7.73
2023-04-28T09:32:20.262Z,6.77
2023-04-28T09:34:54.251Z,7.43
2023-04-28T09:37:22.434Z,7.47
2023-04-28T09:39:52.563Z,7.63
2023-04-28T09:42:32.573Z,7.60
2023-04-28T09:44:59.326Z,9.70
2023-04-28T09:47:26.095Z,8.23
2023-04-28T09:49:56.895Z,8.20
2023-04-28T09:52:24.323Z,8.90
2023-04-28T09:54:52.188Z,8.40
2023-04-28T09:57:19.126Z,8.23
2023-04-28T09:59:47.856Z,9.53
2023-04-28T10:02:41.208Z,8.83
2023-04-28T10:05:03.474Z,9.17
2023-04-28T10:07:34.894Z,9.03
2023-04-28T10:10:01.864Z,8.90
2023-04-28T10:12:28.632Z,8.60
2023-04-28T10:14:56.375Z,8.53
2023-04-28T10:17:25.383Z,8.90
2023-04-28T10:19:53.345Z,8.63
2023-04-28T10:22:20.135Z,8.77
2023-04-28T10:24:54.113Z,9.90
2023-04-28T10:27:21.347Z,9.60
2023-04-28T10:29:48.105Z,9.77
2023-04-28T10:32:18.864Z,10.10
2023-04-28T10:34:45.676Z,9.20
2023-04-28T10:37:14.916Z,8.87
2023-04-28T10:40:01.617Z,8.00
2023-04-28T10:42:51.269Z,8.67
2023-04-28T10:45:37.873Z,8.80
2023-04-28T10:48:06.230Z,8.23
2023-04-28T10:50:39.061Z,8.03
2023-04-28T10:53:06.112Z,8.40
2023-04-28T10:55:36.063Z,8.20
2023-04-28T10:58:18.133Z,7.57
2023-04-28T11:01:02.535Z,7.40
2023-04-28T11:03:47.747Z,7.57
2023-04-28T11:06:25.577Z,7.50
2023-04-28T11:08:52.718Z,6.97
2023-04-28T11:11:20.698Z,7.93
2023-04-28T11:13:47.863Z,7.10
2023-04-28T11:16:16.178Z,7.30
2023-04-28T11:18:57.303Z,7.13
2023-04-28T11:21:24.739Z,7.17
2023-04-28T11:23:51.619Z,6.90
2023-04-28T11:26:21.429Z,7.33
2023-04-28T11:28:55.119Z,7.00
2023-04-28T11:31:24.113Z,6.90
2023-04-28T11:33:56.685Z,6.97
2023-04-28T11:36:28.196Z,7.07
2023-04-28T11:38:56.722Z,6.87
2023-04-28T11:41:23.907Z,7.77
2023-04-28T11:43:51.009Z,6.73
2023-04-28T11:46:18.817Z,7.33
2023-04-28T11:48:45.873Z,6.97
2023-04-28T11:51:34.769Z,6.27
2023-04-28T11:54:02.440Z,6.40
2023-04-28T11:56:29.863Z,6.23
2023-04-28T11:59:05.267Z,6.00
2023-04-28T12:01:32.968Z,6.00
2023-04-28T12:04:00.082Z,8.70
2023-04-28T12:06:28.324Z,7.77
2023-04-28T12:08:55.242Z,7.73
2023-04-28T12:11:22.830Z,6.93
2023-04-28T12:14:03.103Z,6.87
2023-04-28T12:16:42.959Z,6.43
2023-04-28T12:19:10.973Z,6.40
2023-04-28T12:21:39.188Z,6.10
2023-04-28T12:24:19.350Z,6.10
2023-04-28T12:26:46.572Z,6.20
2023-04-28T12:29:31.920Z,6.10
2023-04-28T12:31:58.633Z,6.50
2023-04-28T12:34:25.505Z,6.30
2023-04-28T12:36:52.311Z,7.10
2023-04-28T12:39:19.988Z,6.73
2023-04-28T12:41:46.783Z,6.33
2023-04-28T12:44:13.876Z,5.97
2023-04-28T12:46:40.797Z,6.23
2023-04-28T12:49:07.541Z,6.50
2023-04-28T12:51:36.594Z,6.13
2023-04-28T12:54:04.477Z,5.57
2023-04-28T12:56:31.185Z,5.70
2023-04-28T12:58:57.908Z,5.70
2023-04-28T13:01:25.025Z,5.97
2023-04-28T13:03:53.791Z,6.10
2023-04-28T13:06:20.677Z,6.17
2023-04-28T13:08:47.421Z,5.90
2023-04-28T13:11:22.718Z,6.23
2023-04-28T13:13:50.003Z,6.10
2023-04-28T13:16:16.772Z,5.87
2023-04-28T13:18:43.518Z,5.40
2023-04-28T13:21:10.199Z,5.97
2023-04-28T13:23:37.010Z,5.43
2023-04-28T13:26:04.282Z,5.97
2023-04-28T13:28:31.210Z,5.67
2023-04-28T13:30:57.898Z,5.67
2023-04-28T13:33:30.889Z,5.70
2023-04-28T13:36:00.651Z,5.63
2023-04-28T13:38:27.351Z,6.17
2023-04-28T13:40:54.101Z,5.40
2023-04-28T13:43:20.758Z,6.13
2023-04-28T13:45:47.548Z,5.90
2023-04-28T13:48:14.259Z,5.27
2023-04-28T13:50:41.067Z,4.87
2023-04-28T13:53:08.251Z,4.97
2023-04-28T13:55:34.978Z,5.20
2023-04-28T13:58:04.567Z,4.93
2023-04-28T14:00:32.486Z,5.10
2023-04-28T14:03:00.077Z,4.87
2023-04-28T14:05:27.083Z,5.00
2023-04-28T14:07:54.857Z,5.00
2023-04-28T14:10:22.104Z,5.27
2023-04-28T14:12:48.971Z,4.57
2023-04-28T14:15:17.515Z,4.50
2023-04-28T14:17:44.289Z,4.83
2023-04-28T14:20:12.309Z,4.90
2023-04-28T14:22:39.326Z,5.07
2023-04-28T14:25:06.461Z,4.70
2023-04-28T14:27:33.387Z,4.67
2023-04-28T14:30:00.744Z,4.37
2023-04-28T14:32:27.641Z,5.20
2023-04-28T14:34:54.362Z,5.10
2023-04-28T14:37:21.261Z,4.90
2023-04-28T14:39:48.505Z,4.63
2023-04-28T14:42:15.149Z,4.87
2023-04-28T14:44:41.910Z,5.27
2023-04-28T14:47:08.817Z,4.57
2023-04-28T14:49:35.568Z,5.10
2023-04-28T14:52:02.598Z,4.27
2023-04-28T14:54:29.228Z,4.77
2023-04-28T14:56:56.280Z,4.93
2023-04-28T14:59:22.987Z,3.93
2023-04-28T15:01:51.457Z,4.23
2023-04-28T15:04:18.508Z,4.30
2023-04-28T15:06:45.454Z,4.37
2023-04-28T15:09:12.648Z,4.20
2023-04-28T15:11:39.313Z,4.27
2023-04-28T15:14:06.411Z,4.20
2023-04-28T15:16:33.145Z,4.43
2023-04-28T15:19:00.411Z,6.60
2023-04-28T15:21:28.488Z,7.90
2023-04-28T15:23:55.201Z,6.60
2023-04-28T15:26:23.491Z,4.43
2023-04-28T15:28:50.290Z,4.90
2023-04-28T15:31:17.145Z,4.30
2023-04-28T15:33:43.819Z,4.47
2023-04-28T15:36:11.568Z,3.90
2023-04-28T15:38:38.464Z,4.20
2023-04-28T15:41:05.242Z,3.90
2023-04-28T15:43:32.119Z,3.87
2023-04-28T15:45:59.113Z,6.17
2023-04-28T15:48:26.591Z,11.80
2023-04-28T15:50:53.309Z,27.80
2023-04-28T15:53:20.607Z,37.30
2023-04-28T15:55:47.270Z,35.83
2023-04-28T15:58:14.597Z,10.40
2023-04-28T16:00:42.098Z,4.37
2023-04-28T16:03:09.102Z,3.27
2023-04-28T16:05:38.114Z,3.20
2023-04-28T16:08:05.096Z,3.03
2023-04-28T16:10:31.735Z,3.20
2023-04-28T16:12:58.817Z,3.80
2023-04-28T16:15:25.656Z,3.57
2023-04-28T16:17:52.403Z,3.80
2023-04-28T16:20:19.285Z,3.43
2023-04-28T16:22:46.595Z,3.77
2023-04-28T16:25:13.289Z,3.60
2023-04-28T16:27:40.421Z,3.90
2023-04-28T16:30:07.604Z,3.50
2023-04-28T16:32:36.279Z,4.07
2023-04-28T16:35:03.634Z,3.93
2023-04-28T16:37:30.520Z,3.87
2023-04-28T16:39:57.248Z,3.33
2023-04-28T16:42:23.880Z,3.70
2023-04-28T16:44:52.727Z,3.43
2023-04-28T16:47:20.017Z,3.63
2023-04-28T16:49:47.310Z,3.73
2023-04-28T16:52:14.463Z,3.90
2023-04-28T16:54:41.608Z,3.83
2023-04-28T16:57:08.337Z,3.53
2023-04-28T16:59:35.203Z,3.87
2023-04-28T17:02:03.833Z,3.50
2023-04-28T17:04:30.878Z,3.57
2023-04-28T17:06:58.641Z,3.87
2023-04-28T17:09:26.188Z,3.50
2023-04-28T17:11:53.066Z,3.47
2023-04-28T17:14:21.398Z,3.17
2023-04-28T17:16:48.383Z,3.10
2023-04-28T17:19:15.452Z,3.80
2023-04-28T17:21:42.091Z,3.30
2023-04-28T17:24:09.028Z,3.60
2023-04-28T17:26:36.331Z,3.50
2023-04-28T17:29:03.162Z,3.97
2023-04-28T17:31:30.025Z,3.43
2023-04-28T17:33:57.564Z,3.40
2023-04-28T17:36:27.248Z,3.63
2023-04-28T17:38:54.436Z,3.10
2023-04-28T17:41:21.623Z,3.00
2023-04-28T17:43:48.904Z,2.73
2023-04-28T17:46:15.977Z,2.50
2023-04-28T17:48:43.046Z,2.23
2023-04-28T17:51:09.800Z,2.30
2023-04-28T17:53:37.801Z,2.50
2023-04-28T17:56:05.200Z,2.23
2023-04-28T17:58:33.003Z,2.30
2023-04-28T18:01:00.902Z,6.57
2023-04-28T18:03:27.880Z,7.50
2023-04-28T18:05:54.806Z,8.60
2023-04-28T18:08:21.484Z,8.20
2023-04-28T18:10:48.265Z,8.50
2023-04-28T18:13:15.260Z,12.70
2023-04-28T18:15:43.553Z,50.30
2023-04-28T18:18:11.047Z,16.60
2023-04-28T18:20:37.771Z,71.07
2023-04-28T18:23:05.359Z,27.07
2023-04-28T18:25:32.412Z,17.00
2023-04-28T18:27:59.220Z,7.97
2023-04-28T18:30:25.845Z,6.50
2023-04-28T18:32:52.597Z,3.90
2023-04-28T18:35:19.490Z,3.20
2023-04-28T18:37:46.241Z,3.00
2023-04-28T18:40:12.914Z,3.10
2023-04-28T18:42:39.612Z,2.70
2023-04-28T18:45:07.926Z,2.50
2023-04-28T18:47:35.167Z,2.77
2023-04-28T18:50:02.430Z,2.50
2023-04-28T18:52:29.791Z,2.77
2023-04-28T18:54:56.494Z,2.57
2023-04-28T18:57:23.176Z,2.40
2023-04-28T18:59:50.061Z,2.40
2023-04-28T19:02:17.719Z,2.40
2023-04-28T19:04:45.225Z,2.27
2023-04-28T19:07:12.515Z,2.47
2023-04-28T19:09:39.249Z,2.33
2023-04-28T19:12:05.939Z,2.40
2023-04-28T19:14:33.205Z,2.93
2023-04-28T19:16:59.977Z,2.20
2023-04-28T19:19:26.763Z,2.70
2023-04-28T19:21:53.450Z,2.73
2023-04-28T19:24:20.090Z,2.77
2023-04-28T19:26:46.794Z,2.77
2023-04-28T19:29:16.909Z,3.03
2023-04-28T19:31:43.825Z,3.40
2023-04-28T19:34:10.584Z,2.80
2023-04-28T19:36:37.373Z,3.27
2023-04-28T19:39:04.165Z,3.40
2023-04-28T19:41:30.932Z,3.30
2023-04-28T19:43:57.644Z,3.30
2023-04-28T19:46:24.506Z,3.90
2023-04-28T19:48:52.564Z,3.50
2023-04-28T19:51:19.394Z,3.23
2023-04-28T19:53:47.040Z,3.80
2023-04-28T19:56:13.690Z,3.50
2023-04-28T19:58:40.975Z,3.47
2023-04-28T20:01:07.735Z,3.07
2023-04-28T20:03:35.001Z,3.20
2023-04-28T20:06:01.808Z,2.80
2023-04-28T20:08:29.405Z,2.77
2023-04-28T20:10:56.574Z,2.87
2023-04-28T20:13:23.274Z,3.10
2023-04-28T20:15:49.967Z,2.97
2023-04-28T20:18:16.770Z,2.90
2023-04-28T20:20:43.649Z,3.50
2023-04-28T20:23:10.431Z,3.57
2023-04-28T20:25:37.422Z,3.60
2023-04-28T20:28:04.178Z,3.93
2023-04-28T20:30:30.810Z,4.13
2023-04-28T20:32:57.494Z,4.00
2023-04-28T20:35:24.375Z,3.47
2023-04-28T20:37:50.990Z,3.37
2023-04-28T20:40:17.708Z,3.17
2023-04-28T20:42:44.546Z,3.20
2023-04-28T20:45:11.416Z,3.50
2023-04-28T20:47:38.132Z,2.87
2023-04-28T20:50:06.431Z,3.83
2023-04-28T20:52:33.091Z,3.00
2023-04-28T20:55:00.293Z,2.60
2023-04-28T20:57:27.006Z,2.90
2023-04-28T20:59:54.272Z,2.57
2023-04-28T21:02:21.202Z,2.27
2023-04-28T21:04:48.209Z,2.50
2023-04-28T21:07:14.978Z,2.20
2023-04-28T21:09:42.235Z,2.27
2023-04-28T21:12:09.557Z,2.30
2023-04-28T21:14:36.630Z,2.13
2023-04-28T21:17:03.768Z,2.37
2023-04-28T21:19:30.735Z,2.20
2023-04-28T21:21:57.787Z,1.93
2023-04-28T21:24:24.459Z,2.00
2023-04-28T21:26:51.224Z,6.13
2023-04-28T21:29:18.528Z,6.10
2023-04-28T21:31:45.799Z,5.77
2023-04-28T21:34:12.628Z,3.40
2023-04-28T21:36:40.161Z,4.83
2023-04-28T21:39:07.521Z,2.07
2023-04-28T21:41:34.175Z,3.90
2023-04-28T21:44:00.881Z,2.73
2023-04-28T21:46:28.053Z,2.10
2023-04-28T21:48:55.179Z,2.00
2023-04-28T21:51:21.881Z,2.30
2023-04-28T21:53:48.678Z,2.27
2023-04-28T21:56:17.040Z,2.30
2023-04-28T21:58:43.790Z,2.40
2023-04-28T22:01:11.924Z,2.37
2023-04-28T22:03:38.888Z,2.43
2023-04-28T22:06:05.985Z,2.40
2023-04-28T22:08:32.770Z,2.50
2023-04-28T22:11:00.685Z,2.67
2023-04-28T22:13:27.563Z,2.43
2023-04-28T22:15:56.089Z,2.20
2023-04-28T22:18:22.935Z,2.20
2023-04-28T22:20:50.016Z,2.30
2023-04-28T22:23:17.160Z,2.30
2023-04-28T22:25:44.995Z,2.00
2023-04-28T22:28:11.733Z,2.20
2023-04-28T22:30:38.558Z,2.30
2023-04-28T22:33:05.564Z,2.40
2023-04-28T22:35:32.307Z,2.60
2023-04-28T22:37:59.096Z,2.47
2023-04-28T22:40:26.299Z,2.87
2023-04-28T22:42:52.981Z,2.60
2023-04-28T22:45:19.656Z,2.40
2023-04-28T22:47:46.334Z,2.37
2023-04-28T22:50:13.475Z,2.83
2023-04-28T22:52:40.293Z,2.30
2023-04-28T22:55:07.132Z,2.30
2023-04-28T22:57:34.065Z,2.57
2023-04-28T23:00:00.768Z,2.47
2023-04-28T23:02:27.684Z,2.67
2023-04-28T23:04:54.604Z,2.40
2023-04-28T23:07:21.289Z,2.63
2023-04-28T23:09:48.097Z,3.00
2023-04-28T23:12:14.843Z,2.60
2023-04-28T23:14:41.561Z,2.30
2023-04-28T23:17:08.392Z,2.70
2023-04-28T23:19:39.132Z,2.93
2023-04-28T23:22:07.002Z,2.20
2023-04-28T23:24:33.952Z,2.60
2023-04-28T23:27:00.714Z,2.50
2023-04-28T23:29:27.827Z,2.57
2023-04-28T23:31:54.661Z,2.10
2023-04-28T23:34:22.884Z,2.70
2023-04-28T23:36:49.766Z,2.30
2023-04-28T23:39:16.624Z,2.50
2023-04-28T23:41:43.326Z,2.57
2023-04-28T23:44:10.039Z,2.10
2023-04-28T23:46:36.854Z,2.43
2023-04-28T23:49:03.785Z,2.60
2023-04-28T23:51:32.076Z,2.20
2023-04-28T23:53:59.134Z,2.10
2023-04-28T23:56:26.610Z,2.40
2023-04-28T23:58:53.324Z,2.50
